createdAt,value
2023-03-24T00:01:25.824Z,10.90
2023-03-24T00:03:54.249Z,13.57
2023-03-24T00:06:26.730Z,12.33
2023-03-24T00:08:55.777Z,14.73
2023-03-24T00:11:25.545Z,21.40
2023-03-24T00:13:54.208Z,21.20
2023-03-24T00:16:22.687Z,17.70
2023-03-24T00:18:53.453Z,14.93
2023-03-24T00:21:24.816Z,17.47
2023-03-24T00:23:56.048Z,14.23
2023-03-24T00:26:25.808Z,15.10
2023-03-24T00:28:55.078Z,15.17
2023-03-24T00:31:24.602Z,14.70
2023-03-24T00:33:54.045Z,12.33
2023-03-24T00:36:24.477Z,9.77
2023-03-24T00:38:54.977Z,14.83
2023-03-24T00:41:25.114Z,17.57
2023-03-24T00:43:56.860Z,19.13
2023-03-24T00:46:29.357Z,16.10
2023-03-24T00:49:02.281Z,15.23
2023-03-24T00:51:33.505Z,18.27
2023-03-24T00:54:03.839Z,11.33
2023-03-24T00:56:34.565Z,18.20
2023-03-24T00:59:03.404Z,15.97
2023-03-24T01:01:35.542Z,22.97
2023-03-24T01:04:06.145Z,8.43
2023-03-24T01:06:36.791Z,20.57
2023-03-24T01:09:07.259Z,12.17
2023-03-24T01:11:40.094Z,14.17
2023-03-24T01:14:09.758Z,26.87
2023-03-24T01:16:38.512Z,20.40
2023-03-24T01:19:09.397Z,22.57
2023-03-24T01:21:38.885Z,13.77
2023-03-24T01:24:09.294Z,26.50
2023-03-24T01:26:38.058Z,19.80
2023-03-24T01:29:06.792Z,22.07
2023-03-24T01:31:35.716Z,23.57
2023-03-24T01:34:04.701Z,16.67
2023-03-24T01:36:33.634Z,23.50
2023-03-24T01:39:02.211Z,21.63
2023-03-24T01:41:35.984Z,27.33
2023-03-24T01:44:25.652Z,11.10
2023-03-24T01:46:54.519Z,16.17
2023-03-24T01:49:23.968Z,24.10
2023-03-24T01:51:57.196Z,18.50
2023-03-24T01:54:28.629Z,27.10
2023-03-24T01:57:04.033Z,27.70
2023-03-24T01:59:35.960Z,20.40
2023-03-24T02:02:06.781Z,20.97
2023-03-24T02:04:38.850Z,24.20
2023-03-24T02:07:15.483Z,16.40
2023-03-24T02:09:44.662Z,18.00
2023-03-24T02:12:14.674Z,9.13
2023-03-24T02:14:43.615Z,18.03
2023-03-24T02:17:30.260Z,19.17
2023-03-24T02:20:28.145Z,14.60
2023-03-24T02:23:32.030Z,18.97
2023-03-24T02:26:46.712Z,17.17
2023-03-24T02:29:44.634Z,17.40
2023-03-24T02:32:54.591Z,20.23
2023-03-24T02:35:50.143Z,17.07
2023-03-24T02:38:48.737Z,21.43
2023-03-24T02:41:26.262Z,17.43
2023-03-24T02:44:03.755Z,27.00
2023-03-24T02:46:37.996Z,24.43
2023-03-24T02:49:19.930Z,16.87
2023-03-24T02:51:53.488Z,17.93
2023-03-24T02:54:29.367Z,22.17
2023-03-24T02:57:06.259Z,9.63
2023-03-24T02:59:38.901Z,12.30
2023-03-24T03:02:10.379Z,16.13
2023-03-24T03:04:46.753Z,25.63
2023-03-24T03:07:17.010Z,13.03
2023-03-24T03:09:51.336Z,26.83
2023-03-24T03:12:24.226Z,18.63
2023-03-24T03:14:56.507Z,16.70
2023-03-24T03:17:30.743Z,3.60
2023-03-24T03:20:08.123Z,23.03
2023-03-24T03:22:43.281Z,20.07
2023-03-24T03:25:13.272Z,29.73
2023-03-24T03:27:47.210Z,15.10
2023-03-24T03:30:19.778Z,20.00
2023-03-24T03:32:54.735Z,22.43
2023-03-24T03:35:28.053Z,10.57
2023-03-24T03:38:04.591Z,12.70
2023-03-24T03:40:36.748Z,24.87
2023-03-24T03:43:07.645Z,14.40
2023-03-24T03:45:36.823Z,26.10
2023-03-24T03:48:05.696Z,25.60
2023-03-24T03:50:35.107Z,27.40
2023-03-24T03:53:03.886Z,17.80
2023-03-24T03:55:32.576Z,16.47
2023-03-24T03:58:01.571Z,20.67
2023-03-24T04:00:32.138Z,20.60
2023-03-24T04:03:17.926Z,25.40
2023-03-24T04:05:53.940Z,19.67
2023-03-24T04:08:27.527Z,16.90
2023-03-24T04:11:11.544Z,21.27
2023-03-24T04:13:49.140Z,22.47
2023-03-24T04:16:26.485Z,13.03
2023-03-24T04:19:12.270Z,21.57
2023-03-24T04:21:55.147Z,21.60
2023-03-24T04:24:33.219Z,26.10
2023-03-24T04:27:09.525Z,17.33
2023-03-24T04:29:46.969Z,22.20
2023-03-24T04:32:22.839Z,11.83
2023-03-24T04:35:01.612Z,21.07
2023-03-24T04:37:32.801Z,21.73
2023-03-24T04:40:06.250Z,23.07
2023-03-24T04:42:37.369Z,4.77
2023-03-24T04:45:07.976Z,14.70
2023-03-24T04:47:44.160Z,24.23
2023-03-24T04:50:13.396Z,15.53
2023-03-24T04:52:43.083Z,12.57
2023-03-24T04:55:52.285Z,18.57
2023-03-24T04:58:22.420Z,6.63
2023-03-24T05:00:51.852Z,22.63
2023-03-24T05:03:21.843Z,16.70
2023-03-24T05:05:52.364Z,17.87
2023-03-24T05:08:21.570Z,24.03
2023-03-24T05:10:50.404Z,22.17
2023-03-24T05:13:19.156Z,13.13
2023-03-24T05:15:47.528Z,16.33
2023-03-24T05:18:16.055Z,4.53
2023-03-24T05:20:46.099Z,15.23
2023-03-24T05:23:14.314Z,9.23
2023-03-24T05:25:43.308Z,16.23
2023-03-24T05:28:12.176Z,14.90
2023-03-24T05:30:40.626Z,17.70
2023-03-24T05:33:09.244Z,10.97
2023-03-24T05:35:37.655Z,16.50
2023-03-24T05:38:07.321Z,19.40
2023-03-24T05:40:35.780Z,21.20
2023-03-24T05:43:04.056Z,16.47
2023-03-24T05:45:32.291Z,19.23
2023-03-24T05:48:01.020Z,17.47
2023-03-24T05:50:29.855Z,16.33
2023-03-24T05:52:58.497Z,16.23
2023-03-24T05:55:28.200Z,19.03
2023-03-24T05:57:57.300Z,17.47
2023-03-24T06:00:26.625Z,10.20
2023-03-24T06:02:55.645Z,19.37
2023-03-24T06:05:24.446Z,15.87
2023-03-24T06:07:58.861Z,21.23
2023-03-24T06:10:29.837Z,23.07
2023-03-24T06:12:58.157Z,24.37
2023-03-24T06:15:28.471Z,20.83
2023-03-24T06:17:56.770Z,14.63
2023-03-24T06:20:25.029Z,24.37
2023-03-24T06:22:54.517Z,39.53
2023-03-24T06:25:26.277Z,19.77
2023-03-24T06:27:55.906Z,25.13
2023-03-24T06:30:24.558Z,14.17
2023-03-24T06:32:52.728Z,16.30
2023-03-24T06:35:21.346Z,27.30
2023-03-24T06:37:49.997Z,24.13
2023-03-24T06:40:18.370Z,18.67
2023-03-24T06:42:47.045Z,19.60
2023-03-24T06:45:17.224Z,25.73
2023-03-24T06:47:45.536Z,14.77
2023-03-24T06:50:14.384Z,22.33
2023-03-24T06:52:42.960Z,21.53
2023-03-24T06:55:11.487Z,28.37
2023-03-24T06:57:40.294Z,21.73
2023-03-24T07:00:10.373Z,21.33
2023-03-24T07:02:40.557Z,26.27
2023-03-24T07:05:11.145Z,23.67
2023-03-24T07:10:14.254Z,22.37
2023-03-24T07:12:42.543Z,25.07
2023-03-24T07:15:12.179Z,14.90
2023-03-24T07:17:42.698Z,14.70
2023-03-24T07:20:11.533Z,18.70
2023-03-24T07:22:39.855Z,18.17
2023-03-24T07:25:09.771Z,13.87
2023-03-24T07:27:39.427Z,20.47
2023-03-24T07:30:10.631Z,21.17
2023-03-24T07:32:39.545Z,20.17
2023-03-24T07:35:12.110Z,15.07
2023-03-24T07:37:41.084Z,19.77
2023-03-24T07:40:11.913Z,18.33
2023-03-24T07:42:40.283Z,15.93
2023-03-24T07:45:10.761Z,9.80
2023-03-24T07:47:39.577Z,21.57
2023-03-24T07:50:11.167Z,7.17
2023-03-24T07:52:40.280Z,19.00
2023-03-24T07:55:12.445Z,14.80
2023-03-24T07:57:42.157Z,7.30
2023-03-24T08:00:16.618Z,13.00
2023-03-24T08:02:47.080Z,15.47
2023-03-24T08:05:20.068Z,14.53
2023-03-24T08:07:53.447Z,13.20
2023-03-24T08:10:24.563Z,24.67
2023-03-24T08:12:53.400Z,20.37
2023-03-24T08:15:22.292Z,18.10
2023-03-24T08:17:52.225Z,28.83
2023-03-24T08:20:24.742Z,20.97
2023-03-24T08:22:54.831Z,20.80
2023-03-24T08:25:25.770Z,26.97
2023-03-24T08:27:54.910Z,16.70
2023-03-24T08:30:25.196Z,18.10
2023-03-24T08:32:55.603Z,18.10
2023-03-24T08:35:28.335Z,14.50
2023-03-24T08:37:56.811Z,20.17
2023-03-24T08:40:26.859Z,12.27
2023-03-24T08:42:58.029Z,20.10
2023-03-24T08:45:28.594Z,16.20
2023-03-24T08:47:58.504Z,27.30
2023-03-24T08:50:32.187Z,17.07
2023-03-24T08:53:00.589Z,21.13
2023-03-24T08:55:29.240Z,13.27
2023-03-24T08:57:57.912Z,22.77
2023-03-24T09:00:26.334Z,16.03
2023-03-24T09:02:56.464Z,27.30
2023-03-24T09:05:43.493Z,18.07
2023-03-24T09:08:13.946Z,42.93
2023-03-24T09:10:42.677Z,20.30
2023-03-24T09:13:11.232Z,20.90
2023-03-24T09:15:39.662Z,21.40
2023-03-24T09:18:08.383Z,39.50
2023-03-24T09:20:37.911Z,16.97
2023-03-24T09:23:06.443Z,19.90
2023-03-24T09:25:34.985Z,17.43
2023-03-24T09:28:03.360Z,28.43
2023-03-24T09:30:34.001Z,29.93
2023-03-24T09:33:03.605Z,22.93
2023-03-24T09:35:32.045Z,17.60
2023-03-24T09:38:01.938Z,14.83
2023-03-24T09:40:32.633Z,25.60
2023-03-24T09:43:06.598Z,19.53
2023-03-24T09:45:38.802Z,21.37
2023-03-24T09:48:13.198Z,15.80
2023-03-24T09:50:50.076Z,19.20
2023-03-24T09:53:28.989Z,22.20
2023-03-24T09:55:58.912Z,13.43
2023-03-24T09:58:33.793Z,16.10
2023-03-24T10:01:02.402Z,18.17
2023-03-24T10:03:30.932Z,24.53
2023-03-24T10:06:07.552Z,16.67
2023-03-24T10:08:39.204Z,23.87
2023-03-24T10:11:12.848Z,21.17
2023-03-24T10:13:52.338Z,27.27
2023-03-24T10:16:28.477Z,21.60
2023-03-24T10:19:03.296Z,14.93
2023-03-24T10:21:34.880Z,16.90
2023-03-24T10:24:11.340Z,19.57
2023-03-24T10:26:47.104Z,17.40
2023-03-24T10:29:23.747Z,15.33
2023-03-24T10:31:57.586Z,20.20
2023-03-24T10:34:29.639Z,15.10
2023-03-24T10:37:00.923Z,14.47
2023-03-24T10:39:41.935Z,11.43
2023-03-24T10:42:17.322Z,15.40
2023-03-24T10:44:47.047Z,23.60
2023-03-24T10:47:17.314Z,41.73
2023-03-24T10:49:55.085Z,18.87
2023-03-24T10:52:24.977Z,17.73
2023-03-24T10:54:59.937Z,16.90
2023-03-24T10:57:29.426Z,15.27
2023-03-24T11:00:01.623Z,13.40
2023-03-24T11:02:32.356Z,24.50
2023-03-24T11:05:03.709Z,27.40
2023-03-24T11:07:35.743Z,10.33
2023-03-24T11:10:07.984Z,22.10
2023-03-24T11:12:38.098Z,16.87
2023-03-24T11:15:22.069Z,59.33
2023-03-24T11:17:56.131Z,62.80
2023-03-24T11:20:31.299Z,18.10
2023-03-24T11:23:02.885Z,16.50
2023-03-24T11:25:35.412Z,21.53
2023-03-24T11:28:06.935Z,18.77
2023-03-24T11:30:45.993Z,19.07
2023-03-24T11:33:34.875Z,24.87
2023-03-24T11:36:11.003Z,16.80
2023-03-24T11:38:39.398Z,23.07
2023-03-24T11:41:23.445Z,19.40
2023-03-24T11:43:51.651Z,19.93
2023-03-24T11:46:23.454Z,16.77
2023-03-24T11:48:54.904Z,19.00
2023-03-24T11:51:30.081Z,22.73
2023-03-24T11:54:01.238Z,18.93
2023-03-24T11:56:38.068Z,22.17
2023-03-24T11:59:14.329Z,38.53
2023-03-24T12:01:51.783Z,18.80
2023-03-24T12:04:37.249Z,19.30
2023-03-24T12:07:33.627Z,27.13
2023-03-24T12:10:07.879Z,24.97
2023-03-24T12:12:43.593Z,16.30
2023-03-24T12:15:35.361Z,16.60
2023-03-24T12:18:16.485Z,17.03
2023-03-24T12:20:54.521Z,23.23
2023-03-24T12:23:30.131Z,31.30
2023-03-24T12:26:18.279Z,21.53
2023-03-24T12:28:59.613Z,24.97
2023-03-24T12:31:46.546Z,19.67
2023-03-24T12:34:43.825Z,20.77
2023-03-24T12:37:19.739Z,20.93
2023-03-24T12:39:55.459Z,20.33
2023-03-24T12:42:27.077Z,15.43
2023-03-24T12:45:14.801Z,16.60
2023-03-24T12:47:54.843Z,24.30
2023-03-24T12:50:36.293Z,19.67
2023-03-24T12:53:36.992Z,18.53
2023-03-24T12:56:10.670Z,9.27
2023-03-24T12:58:45.496Z,15.27
2023-03-24T13:01:23.878Z,16.87
2023-03-24T13:03:57.457Z,19.87
2023-03-24T13:06:32.365Z,8.70
2023-03-24T13:09:20.840Z,12.17
2023-03-24T13:11:57.617Z,12.10
2023-03-24T13:14:32.364Z,8.80
2023-03-24T13:17:08.768Z,6.83
2023-03-24T13:19:38.864Z,10.03
2023-03-24T13:22:11.692Z,9.40
2023-03-24T13:24:40.369Z,3.73
2023-03-24T13:27:15.364Z,5.80
2023-03-24T13:30:19.656Z,6.80
2023-03-24T13:32:52.708Z,4.07
2023-03-24T13:35:33.065Z,11.20
2023-03-24T13:38:09.747Z,3.23
2023-03-24T13:40:41.605Z,6.93
2023-03-24T13:43:13.558Z,4.57
2023-03-24T13:45:44.247Z,2.17
2023-03-24T13:48:30.375Z,3.80
2023-03-24T13:51:02.463Z,7.00
2023-03-24T13:53:37.807Z,3.10
2023-03-24T13:56:08.239Z,3.33
2023-03-24T13:59:06.117Z,4.47
2023-03-24T14:01:38.199Z,1.53
2023-03-24T14:04:29.468Z,2.20
2023-03-24T14:06:59.593Z,10.53
2023-03-24T14:09:29.591Z,3.67
2023-03-24T14:12:19.412Z,11.33
2023-03-24T14:15:20.023Z,2.90
2023-03-24T14:17:54.628Z,6.83
2023-03-24T14:20:36.059Z,4.80
2023-03-24T14:23:05.287Z,2.17
2023-03-24T14:25:36.878Z,2.63
2023-03-24T14:28:22.664Z,3.13
2023-03-24T14:31:13.279Z,2.60
2023-03-24T14:33:46.362Z,1.67
2023-03-24T14:36:23.233Z,4.30
2023-03-24T14:38:52.519Z,3.30
2023-03-24T14:41:31.331Z,3.37
2023-03-24T14:44:01.681Z,1.77
2023-03-24T14:46:59.138Z,2.30
2023-03-24T14:49:33.074Z,3.50
2023-03-24T14:52:12.351Z,1.30
2023-03-24T14:54:44.588Z,1.90
2023-03-24T14:57:20.790Z,1.70
2023-03-24T14:59:54.187Z,1.77
2023-03-24T15:02:31.142Z,1.00
2023-03-24T15:05:25.106Z,1.07
2023-03-24T15:08:18.395Z,0.70
2023-03-24T15:10:51.498Z,2.77
2023-03-24T15:13:30.808Z,1.70
2023-03-24T15:16:00.689Z,1.67
2023-03-24T15:18:29.320Z,1.63
2023-03-24T15:20:57.706Z,2.50
2023-03-24T15:23:29.323Z,1.30
2023-03-24T15:25:57.602Z,1.40
2023-03-24T15:28:28.253Z,1.37
2023-03-24T15:30:59.410Z,2.53
2023-03-24T15:33:30.841Z,2.20
2023-03-24T15:36:01.455Z,2.37
2023-03-24T15:38:32.761Z,2.97
2023-03-24T15:41:02.247Z,1.57
2023-03-24T15:43:31.161Z,1.30
2023-03-24T15:46:11.680Z,1.57
2023-03-24T15:48:41.324Z,4.20
2023-03-24T15:51:12.390Z,1.40
2023-03-24T15:53:45.974Z,1.83
2023-03-24T15:56:26.316Z,1.17
2023-03-24T15:58:57.073Z,1.30
2023-03-24T16:01:36.685Z,4.93
2023-03-24T16:04:07.372Z,1.00
2023-03-24T16:06:36.925Z,2.77
2023-03-24T16:09:10.802Z,4.97
2023-03-24T16:11:38.946Z,3.70
2023-03-24T16:14:25.094Z,3.60
2023-03-24T16:16:55.410Z,3.23
2023-03-24T16:19:24.019Z,5.93
2023-03-24T16:21:52.599Z,6.73
2023-03-24T16:24:22.638Z,7.13
2023-03-24T16:26:51.169Z,5.73
2023-03-24T16:29:21.671Z,12.17
2023-03-24T16:31:51.430Z,12.07
2023-03-24T16:34:21.366Z,14.93
2023-03-24T16:36:51.429Z,16.37
2023-03-24T16:39:22.913Z,10.93
2023-03-24T16:41:51.591Z,14.93
2023-03-24T16:44:20.042Z,14.27
2023-03-24T16:46:52.370Z,16.63
2023-03-24T16:49:23.614Z,21.90
2023-03-24T16:51:53.279Z,12.33
2023-03-24T16:54:23.285Z,19.67
2023-03-24T16:56:51.537Z,13.70
2023-03-24T16:59:19.899Z,22.60
2023-03-24T17:01:48.626Z,16.97
2023-03-24T17:04:19.428Z,21.80
2023-03-24T17:06:51.832Z,15.80
2023-03-24T17:09:21.006Z,13.83
2023-03-24T17:11:53.115Z,18.73
2023-03-24T17:14:21.766Z,20.73
2023-03-24T17:16:53.807Z,27.53
2023-03-24T17:19:24.900Z,19.90
2023-03-24T17:21:59.353Z,18.07
2023-03-24T17:24:28.680Z,19.67
2023-03-24T17:26:58.193Z,14.60
2023-03-24T17:29:26.448Z,9.40
2023-03-24T17:31:55.459Z,14.43
2023-03-24T17:34:23.714Z,16.57
2023-03-24T17:36:52.341Z,17.57
2023-03-24T17:39:21.964Z,16.17
2023-03-24T17:41:50.481Z,14.80
2023-03-24T17:44:20.162Z,11.37
2023-03-24T17:46:48.993Z,12.13
2023-03-24T17:49:17.300Z,13.23
2023-03-24T17:51:45.487Z,11.87
2023-03-24T17:54:14.230Z,11.53
2023-03-24T17:56:42.598Z,13.90
2023-03-24T17:59:10.856Z,11.57
2023-03-24T18:01:40.921Z,8.87
2023-03-24T18:04:09.421Z,9.40
2023-03-24T18:06:38.607Z,11.07
2023-03-24T18:09:07.465Z,12.17
2023-03-24T18:11:36.058Z,3.90
2023-03-24T18:14:04.436Z,7.07
2023-03-24T18:16:35.443Z,8.47
2023-03-24T18:19:05.630Z,7.73
2023-03-24T18:21:34.057Z,5.27
2023-03-24T18:24:02.570Z,2.70
2023-03-24T18:26:31.081Z,1.40
2023-03-24T18:28:59.284Z,3.27
2023-03-24T18:31:28.105Z,1.03
2023-03-24T18:33:56.362Z,1.60
2023-03-24T18:36:27.297Z,1.43
2023-03-24T18:39:00.190Z,0.33
2023-03-24T18:41:30.525Z,0.40
2023-03-24T18:44:00.577Z,1.13
2023-03-24T18:46:29.163Z,0.40
2023-03-24T18:48:58.169Z,0.40
2023-03-24T18:51:28.458Z,0.40
2023-03-24T18:53:56.960Z,0.50
2023-03-24T18:56:25.606Z,0.40
2023-03-24T18:58:53.930Z,2.13
2023-03-24T19:01:26.250Z,0.83
2023-03-24T19:03:55.002Z,0.33
2023-03-24T19:06:26.301Z,0.40
2023-03-24T19:08:56.530Z,0.57
2023-03-24T19:11:25.367Z,2.97
2023-03-24T19:13:53.648Z,0.40
2023-03-24T19:16:22.152Z,0.37
2023-03-24T19:18:50.718Z,0.60
2023-03-24T19:21:19.394Z,0.20
2023-03-24T19:23:48.993Z,0.40
2023-03-24T19:26:20.933Z,0.30
2023-03-24T19:28:49.431Z,2.43
2023-03-24T19:31:19.959Z,0.50
2023-03-24T19:33:48.676Z,0.40
2023-03-24T19:36:18.245Z,0.97
2023-03-24T19:38:46.466Z,0.77
2023-03-24T19:41:15.970Z,0.40
2023-03-24T19:43:45.574Z,0.40
2023-03-24T19:46:13.801Z,0.93
2023-03-24T19:48:42.005Z,0.50
2023-03-24T19:51:10.520Z,0.60
2023-03-24T19:53:38.703Z,0.40
2023-03-24T19:56:07.885Z,0.70
2023-03-24T19:58:36.207Z,0.30
2023-03-24T20:01:06.156Z,0.30
2023-03-24T20:03:36.609Z,0.40
2023-03-24T20:06:08.392Z,0.30
2023-03-24T20:08:36.961Z,0.30
2023-03-24T20:11:08.281Z,0.30
2023-03-24T20:13:36.962Z,0.30
2023-03-24T20:16:07.343Z,0.30
2023-03-24T20:18:36.423Z,0.30
2023-03-24T20:21:06.723Z,0.30
2023-03-24T20:23:34.889Z,0.30
2023-03-24T20:26:03.397Z,0.83
2023-03-24T20:28:32.107Z,0.23
2023-03-24T20:31:01.797Z,1.23
2023-03-24T20:33:32.300Z,0.30
2023-03-24T20:36:01.263Z,0.20
2023-03-24T20:38:29.508Z,0.23
2023-03-24T20:41:01.680Z,0.30
2023-03-24T20:43:36.145Z,0.27
2023-03-24T20:46:05.111Z,0.30
2023-03-24T20:48:35.179Z,0.30
2023-03-24T20:51:04.601Z,0.33
2023-03-24T20:53:35.735Z,0.93
2023-03-24T20:56:06.750Z,0.20
2023-03-24T20:58:36.234Z,0.27
2023-03-24T21:01:08.310Z,2.43
2023-03-24T21:03:38.590Z,0.30
2023-03-24T21:06:10.670Z,0.80
2023-03-24T21:08:42.351Z,0.30
2023-03-24T21:11:12.586Z,0.30
2023-03-24T21:13:41.465Z,0.40
2023-03-24T21:16:10.718Z,0.50
2023-03-24T21:18:42.725Z,1.40
2023-03-24T21:21:12.554Z,0.30
2023-03-24T21:23:42.903Z,0.30
2023-03-24T21:26:15.337Z,0.40
2023-03-24T21:28:43.948Z,0.50
2023-03-24T21:31:14.920Z,0.30
2023-03-24T21:33:44.731Z,2.00
2023-03-24T21:36:13.494Z,0.33
2023-03-24T21:38:42.151Z,0.30
2023-03-24T21:41:11.594Z,0.43
2023-03-24T21:43:41.002Z,0.30
2023-03-24T21:46:15.288Z,0.60
2023-03-24T21:48:50.212Z,0.20
2023-03-24T21:51:20.752Z,0.20
2023-03-24T21:53:49.394Z,0.87
2023-03-24T21:56:17.563Z,0.30
2023-03-24T21:58:46.832Z,0.30
2023-03-24T22:01:15.447Z,2.43
2023-03-24T22:03:46.454Z,1.27
2023-03-24T22:06:15.447Z,0.20
2023-03-24T22:08:44.599Z,0.30
2023-03-24T22:11:15.444Z,0.20
2023-03-24T22:13:43.672Z,0.30
2023-03-24T22:16:11.874Z,0.20
2023-03-24T22:18:40.077Z,0.30
2023-03-24T22:21:11.770Z,0.27
2023-03-24T22:23:42.657Z,0.23
2023-03-24T22:26:13.652Z,0.20
2023-03-24T22:28:43.105Z,0.50
2023-03-24T22:31:13.164Z,0.20
2023-03-24T22:33:41.765Z,0.30
2023-03-24T22:36:12.512Z,2.57
2023-03-24T22:38:41.169Z,0.30
2023-03-24T22:41:12.251Z,0.30
2023-03-24T22:43:41.638Z,0.30
2023-03-24T22:46:11.033Z,0.20
2023-03-24T22:48:40.409Z,0.30
2023-03-24T22:51:09.486Z,0.40
2023-03-24T22:53:39.234Z,0.20
2023-03-24T22:56:09.162Z,1.20
2023-03-24T22:58:37.540Z,0.33
2023-03-24T23:01:06.212Z,0.47
2023-03-24T23:03:35.466Z,0.50
2023-03-24T23:06:04.866Z,0.40
2023-03-24T23:08:34.494Z,0.63
2023-03-24T23:11:06.396Z,0.30
2023-03-24T23:13:35.838Z,0.30
2023-03-24T23:16:04.156Z,0.40
2023-03-24T23:18:32.808Z,0.27
2023-03-24T23:21:07.131Z,0.30
2023-03-24T23:23:36.259Z,0.23
2023-03-24T23:26:07.014Z,0.30
2023-03-24T23:28:35.723Z,0.40
2023-03-24T23:31:04.251Z,0.40
2023-03-24T23:33:32.880Z,0.30
2023-03-24T23:36:01.823Z,0.30
2023-03-24T23:38:31.707Z,0.40
2023-03-24T23:41:00.202Z,0.47
2023-03-24T23:43:29.783Z,0.20
2023-03-24T23:45:58.584Z,0.20
2023-03-24T23:48:27.691Z,0.20
2023-03-24T23:50:59.092Z,0.33
2023-03-24T23:53:27.711Z,1.13
2023-03-24T23:55:57.377Z,0.40
2023-03-24T23:58:25.789Z,0.30
